sensor_id;sensor_type;location;lat;lon;timestamp;P1;durP1;ratioP1;P2;durP2;ratioP2
10645;SDS011;5371;49.782;9.932;2022-07-29T00:00:30;7.90;;;3.10;;
10645;SDS011;5371;49.782;9.932;2022-07-29T00:02:57;6.50;;;3.05;;
10645;SDS011;5371;49.782;9.932;2022-07-29T00:05:24;7.00;;;3.35;;
10645;SDS011;5371;49.782;9.932;2022-07-29T00:07:51;8.90;;;3.58;;
10645;SDS011;5371;49.782;9.932;2022-07-29T00:10:18;6.32;;;3.38;;
10645;SDS011;5371;49.782;9.932;2022-07-29T00:12:46;7.57;;;3.90;;
10645;SDS011;5371;49.782;9.932;2022-07-29T00:15:13;4.93;;;3.40;;
10645;SDS011;5371;49.782;9.932;2022-07-29T00:17:40;7.55;;;3.80;;
10645;SDS011;5371;49.782;9.932;2022-07-29T00:20:07;7.60;;;4.13;;
10645;SDS011;5371;49.782;9.932;2022-07-29T00:22:36;8.07;;;3.88;;
10645;SDS011;5371;49.782;9.932;2022-07-29T00:25:04;8.90;;;3.75;;
10645;SDS011;5371;49.782;9.932;2022-07-29T00:27:32;10.95;;;4.10;;
10645;SDS011;5371;49.782;9.932;2022-07-29T00:30:00;7.35;;;3.60;;
10645;SDS011;5371;49.782;9.932;2022-07-29T00:32:27;9.40;;;4.28;;
10645;SDS011;5371;49.782;9.932;2022-07-29T00:34:54;6.03;;;4.20;;
10645;SDS011;5371;49.782;9.932;2022-07-29T00:37:50;9.50;;;4.07;;
10645;SDS011;5371;49.782;9.932;2022-07-29T00:40:17;6.38;;;4.07;;
10645;SDS011;5371;49.782;9.932;2022-07-29T00:42:44;6.57;;;4.10;;
10645;SDS011;5371;49.782;9.932;2022-07-29T00:45:13;6.25;;;3.83;;
10645;SDS011;5371;49.782;9.932;2022-07-29T00:47:41;6.20;;;3.92;;
10645;SDS011;5371;49.782;9.932;2022-07-29T00:50:08;7.43;;;4.00;;
10645;SDS011;5371;49.782;9.932;2022-07-29T00:52:37;7.05;;;3.88;;
10645;SDS011;5371;49.782;9.932;2022-07-29T00:55:06;6.40;;;3.67;;
10645;SDS011;5371;49.782;9.932;2022-07-29T00:57:35;5.65;;;4.05;;
10645;SDS011;5371;49.782;9.932;2022-07-29T01:00:02;5.85;;;4.10;;
10645;SDS011;5371;49.782;9.932;2022-07-29T01:02:31;9.05;;;4.03;;
10645;SDS011;5371;49.782;9.932;2022-07-29T01:04:58;10.30;;;4.15;;
10645;SDS011;5371;49.782;9.932;2022-07-29T01:07:26;11.40;;;4.13;;
10645;SDS011;5371;49.782;9.932;2022-07-29T01:09:55;7.95;;;4.15;;
10645;SDS011;5371;49.782;9.932;2022-07-29T01:12:23;7.68;;;4.15;;
10645;SDS011;5371;49.782;9.932;2022-07-29T01:14:52;7.45;;;4.30;;
10645;SDS011;5371;49.782;9.932;2022-07-29T01:17:21;7.95;;;3.90;;
10645;SDS011;5371;49.782;9.932;2022-07-29T01:19:56;7.53;;;4.40;;
10645;SDS011;5371;49.782;9.932;2022-07-29T01:22:28;6.95;;;4.57;;
10645;SDS011;5371;49.782;9.932;2022-07-29T01:25:05;7.97;;;3.90;;
10645;SDS011;5371;49.782;9.932;2022-07-29T01:27:47;6.75;;;3.85;;
10645;SDS011;5371;49.782;9.932;2022-07-29T01:30:30;7.28;;;4.30;;
10645;SDS011;5371;49.782;9.932;2022-07-29T01:33:00;7.38;;;4.20;;
10645;SDS011;5371;49.782;9.932;2022-07-29T01:35:31;7.40;;;4.30;;
10645;SDS011;5371;49.782;9.932;2022-07-29T01:38:05;11.05;;;4.45;;
10645;SDS011;5371;49.782;9.932;2022-07-29T01:40:36;8.57;;;3.95;;
10645;SDS011;5371;49.782;9.932;2022-07-29T01:43:12;9.38;;;4.40;;
10645;SDS011;5371;49.782;9.932;2022-07-29T01:45:45;6.63;;;3.83;;
10645;SDS011;5371;49.782;9.932;2022-07-29T01:48:15;6.50;;;4.00;;
10645;SDS011;5371;49.782;9.932;2022-07-29T01:50:47;10.40;;;3.70;;
10645;SDS011;5371;49.782;9.932;2022-07-29T01:53:18;8.40;;;3.90;;
10645;SDS011;5371;49.782;9.932;2022-07-29T01:55:51;9.32;;;3.90;;
10645;SDS011;5371;49.782;9.932;2022-07-29T01:58:20;9.55;;;4.10;;
10645;SDS011;5371;49.782;9.932;2022-07-29T02:00:51;7.47;;;4.20;;
10645;SDS011;5371;49.782;9.932;2022-07-29T02:03:20;5.43;;;3.65;;
10645;SDS011;5371;49.782;9.932;2022-07-29T02:05:48;7.32;;;4.18;;
10645;SDS011;5371;49.782;9.932;2022-07-29T02:08:17;8.68;;;4.07;;
10645;SDS011;5371;49.782;9.932;2022-07-29T02:10:46;8.95;;;3.90;;
10645;SDS011;5371;49.782;9.932;2022-07-29T02:13:15;12.32;;;3.92;;
10645;SDS011;5371;49.782;9.932;2022-07-29T02:15:44;6.07;;;4.15;;
10645;SDS011;5371;49.782;9.932;2022-07-29T02:18:17;6.82;;;3.75;;
10645;SDS011;5371;49.782;9.932;2022-07-29T02:20:49;8.07;;;3.80;;
10645;SDS011;5371;49.782;9.932;2022-07-29T02:23:20;6.55;;;4.00;;
10645;SDS011;5371;49.782;9.932;2022-07-29T02:25:48;8.73;;;3.90;;
10645;SDS011;5371;49.782;9.932;2022-07-29T02:28:17;11.45;;;3.97;;
10645;SDS011;5371;49.782;9.932;2022-07-29T02:30:46;6.40;;;3.72;;
10645;SDS011;5371;49.782;9.932;2022-07-29T02:33:16;7.03;;;3.60;;
10645;SDS011;5371;49.782;9.932;2022-07-29T02:35:46;5.95;;;3.72;;
10645;SDS011;5371;49.782;9.932;2022-07-29T02:38:15;7.50;;;3.67;;
10645;SDS011;5371;49.782;9.932;2022-07-29T02:41:01;6.68;;;4.00;;
10645;SDS011;5371;49.782;9.932;2022-07-29T02:43:32;9.40;;;3.95;;
10645;SDS011;5371;49.782;9.932;2022-07-29T02:46:02;5.45;;;3.53;;
10645;SDS011;5371;49.782;9.932;2022-07-29T02:48:36;4.85;;;3.47;;
10645;SDS011;5371;49.782;9.932;2022-07-29T02:51:08;6.38;;;3.75;;
10645;SDS011;5371;49.782;9.932;2022-07-29T02:53:38;7.10;;;3.97;;
10645;SDS011;5371;49.782;9.932;2022-07-29T02:56:10;6.47;;;3.72;;
10645;SDS011;5371;49.782;9.932;2022-07-29T02:58:40;9.43;;;3.63;;
10645;SDS011;5371;49.782;9.932;2022-07-29T03:01:12;7.68;;;3.88;;
10645;SDS011;5371;49.782;9.932;2022-07-29T03:03:44;6.10;;;3.60;;
10645;SDS011;5371;49.782;9.932;2022-07-29T03:06:13;8.23;;;3.42;;
10645;SDS011;5371;49.782;9.932;2022-07-29T03:08:43;6.45;;;3.28;;
10645;SDS011;5371;49.782;9.932;2022-07-29T03:11:10;8.15;;;3.70;;
10645;SDS011;5371;49.782;9.932;2022-07-29T03:13:38;8.75;;;3.58;;
10645;SDS011;5371;49.782;9.932;2022-07-29T03:16:06;5.68;;;3.67;;
10645;SDS011;5371;49.782;9.932;2022-07-29T03:18:36;6.43;;;3.60;;
10645;SDS011;5371;49.782;9.932;2022-07-29T03:21:05;6.93;;;3.40;;
10645;SDS011;5371;49.782;9.932;2022-07-29T03:23:32;4.78;;;3.33;;
10645;SDS011;5371;49.782;9.932;2022-07-29T03:25:59;7.65;;;3.45;;
10645;SDS011;5371;49.782;9.932;2022-07-29T03:28:26;7.45;;;3.22;;
10645;SDS011;5371;49.782;9.932;2022-07-29T03:30:53;6.75;;;3.85;;
10645;SDS011;5371;49.782;9.932;2022-07-29T03:33:20;5.53;;;3.63;;
10645;SDS011;5371;49.782;9.932;2022-07-29T03:35:47;7.05;;;3.50;;
10645;SDS011;5371;49.782;9.932;2022-07-29T03:38:15;5.13;;;3.30;;
10645;SDS011;5371;49.782;9.932;2022-07-29T03:40:44;8.40;;;3.33;;
10645;SDS011;5371;49.782;9.932;2022-07-29T03:43:15;6.82;;;3.42;;
10645;SDS011;5371;49.782;9.932;2022-07-29T03:45:44;8.30;;;3.60;;
10645;SDS011;5371;49.782;9.932;2022-07-29T03:48:15;8.30;;;3.63;;
10645;SDS011;5371;49.782;9.932;2022-07-29T03:50:46;8.73;;;3.60;;
10645;SDS011;5371;49.782;9.932;2022-07-29T03:53:12;7.72;;;3.50;;
10645;SDS011;5371;49.782;9.932;2022-07-29T03:55:41;7.28;;;3.47;;
10645;SDS011;5371;49.782;9.932;2022-07-29T03:58:12;9.20;;;4.65;;
10645;SDS011;5371;49.782;9.932;2022-07-29T04:00:41;9.45;;;3.50;;
10645;SDS011;5371;49.782;9.932;2022-07-29T04:03:09;6.85;;;3.55;;
10645;SDS011;5371;49.782;9.932;2022-07-29T04:05:36;6.38;;;3.45;;
10645;SDS011;5371;49.782;9.932;2022-07-29T04:08:04;10.95;;;3.90;;
10645;SDS011;5371;49.782;9.932;2022-07-29T04:10:31;7.70;;;3.42;;
10645;SDS011;5371;49.782;9.932;2022-07-29T04:12:59;7.32;;;3.60;;
10645;SDS011;5371;49.782;9.932;2022-07-29T04:15:27;5.70;;;3.40;;
10645;SDS011;5371;49.782;9.932;2022-07-29T04:17:54;8.68;;;3.60;;
10645;SDS011;5371;49.782;9.932;2022-07-29T04:20:21;7.82;;;4.00;;
10645;SDS011;5371;49.782;9.932;2022-07-29T04:22:48;7.25;;;3.38;;
10645;SDS011;5371;49.782;9.932;2022-07-29T04:25:15;5.80;;;3.47;;
10645;SDS011;5371;49.782;9.932;2022-07-29T04:27:42;6.35;;;3.45;;
10645;SDS011;5371;49.782;9.932;2022-07-29T04:30:25;8.05;;;3.42;;
10645;SDS011;5371;49.782;9.932;2022-07-29T04:32:52;10.88;;;3.42;;
10645;SDS011;5371;49.782;9.932;2022-07-29T04:35:19;11.18;;;3.00;;
10645;SDS011;5371;49.782;9.932;2022-07-29T04:37:46;4.60;;;2.75;;
10645;SDS011;5371;49.782;9.932;2022-07-29T04:40:13;7.80;;;3.40;;
10645;SDS011;5371;49.782;9.932;2022-07-29T04:42:40;5.50;;;3.13;;
10645;SDS011;5371;49.782;9.932;2022-07-29T04:45:07;5.97;;;3.03;;
10645;SDS011;5371;49.782;9.932;2022-07-29T04:47:35;9.85;;;4.78;;
10645;SDS011;5371;49.782;9.932;2022-07-29T04:50:03;8.43;;;3.22;;
10645;SDS011;5371;49.782;9.932;2022-07-29T04:52:31;13.23;;;4.07;;
10645;SDS011;5371;49.782;9.932;2022-07-29T04:54:58;5.60;;;3.53;;
10645;SDS011;5371;49.782;9.932;2022-07-29T04:57:25;10.95;;;3.90;;
10645;SDS011;5371;49.782;9.932;2022-07-29T04:59:53;5.85;;;3.38;;
10645;SDS011;5371;49.782;9.932;2022-07-29T05:02:20;7.97;;;3.30;;
10645;SDS011;5371;49.782;9.932;2022-07-29T05:04:48;9.48;;;3.45;;
10645;SDS011;5371;49.782;9.932;2022-07-29T05:07:15;7.55;;;3.33;;
10645;SDS011;5371;49.782;9.932;2022-07-29T05:09:42;6.00;;;3.58;;
10645;SDS011;5371;49.782;9.932;2022-07-29T05:12:09;7.95;;;3.22;;
10645;SDS011;5371;49.782;9.932;2022-07-29T05:14:37;5.97;;;3.38;;
10645;SDS011;5371;49.782;9.932;2022-07-29T05:17:04;6.68;;;3.35;;
10645;SDS011;5371;49.782;9.932;2022-07-29T05:19:31;4.78;;;3.38;;
10645;SDS011;5371;49.782;9.932;2022-07-29T05:21:59;10.48;;;3.75;;
10645;SDS011;5371;49.782;9.932;2022-07-29T05:24:26;6.88;;;3.40;;
10645;SDS011;5371;49.782;9.932;2022-07-29T05:26:53;7.88;;;3.50;;
10645;SDS011;5371;49.782;9.932;2022-07-29T05:29:20;5.82;;;3.38;;
10645;SDS011;5371;49.782;9.932;2022-07-29T05:31:47;8.68;;;3.60;;
10645;SDS011;5371;49.782;9.932;2022-07-29T05:34:14;8.30;;;3.13;;
10645;SDS011;5371;49.782;9.932;2022-07-29T05:36:41;5.40;;;3.13;;
10645;SDS011;5371;49.782;9.932;2022-07-29T05:39:09;5.03;;;3.25;;
10645;SDS011;5371;49.782;9.932;2022-07-29T05:41:36;6.70;;;3.10;;
10645;SDS011;5371;49.782;9.932;2022-07-29T05:44:03;5.15;;;3.22;;
10645;SDS011;5371;49.782;9.932;2022-07-29T05:46:30;5.93;;;2.97;;
10645;SDS011;5371;49.782;9.932;2022-07-29T05:48:57;5.60;;;3.28;;
10645;SDS011;5371;49.782;9.932;2022-07-29T05:51:24;7.88;;;2.95;;
10645;SDS011;5371;49.782;9.932;2022-07-29T05:53:51;11.27;;;3.25;;
10645;SDS011;5371;49.782;9.932;2022-07-29T05:56:20;7.22;;;3.63;;
10645;SDS011;5371;49.782;9.932;2022-07-29T05:58:47;9.25;;;4.50;;
10645;SDS011;5371;49.782;9.932;2022-07-29T06:01:14;6.35;;;3.30;;
10645;SDS011;5371;49.782;9.932;2022-07-29T06:03:41;7.85;;;3.15;;
10645;SDS011;5371;49.782;9.932;2022-07-29T06:06:08;8.57;;;3.83;;
10645;SDS011;5371;49.782;9.932;2022-07-29T06:08:35;12.13;;;3.75;;
10645;SDS011;5371;49.782;9.932;2022-07-29T06:11:03;6.15;;;3.10;;
10645;SDS011;5371;49.782;9.932;2022-07-29T06:13:32;7.47;;;3.40;;
10645;SDS011;5371;49.782;9.932;2022-07-29T06:15:59;6.03;;;3.40;;
10645;SDS011;5371;49.782;9.932;2022-07-29T06:18:25;6.15;;;3.38;;
10645;SDS011;5371;49.782;9.932;2022-07-29T06:20:52;7.05;;;3.42;;
10645;SDS011;5371;49.782;9.932;2022-07-29T06:23:20;8.02;;;3.53;;
10645;SDS011;5371;49.782;9.932;2022-07-29T06:25:47;16.20;;;3.47;;
10645;SDS011;5371;49.782;9.932;2022-07-29T06:28:14;8.45;;;3.10;;
10645;SDS011;5371;49.782;9.932;2022-07-29T06:30:42;6.32;;;2.80;;
10645;SDS011;5371;49.782;9.932;2022-07-29T06:33:09;6.40;;;3.15;;
10645;SDS011;5371;49.782;9.932;2022-07-29T06:35:42;6.95;;;2.92;;
10645;SDS011;5371;49.782;9.932;2022-07-29T06:38:10;6.45;;;3.20;;
10645;SDS011;5371;49.782;9.932;2022-07-29T06:40:40;6.00;;;2.97;;
10645;SDS011;5371;49.782;9.932;2022-07-29T06:43:25;8.13;;;3.30;;
10645;SDS011;5371;49.782;9.932;2022-07-29T06:45:53;7.07;;;3.10;;
10645;SDS011;5371;49.782;9.932;2022-07-29T06:48:21;8.20;;;3.47;;
10645;SDS011;5371;49.782;9.932;2022-07-29T06:50:48;9.90;;;3.40;;
10645;SDS011;5371;49.782;9.932;2022-07-29T06:53:15;5.68;;;3.05;;
10645;SDS011;5371;49.782;9.932;2022-07-29T06:55:42;8.88;;;3.17;;
10645;SDS011;5371;49.782;9.932;2022-07-29T06:58:09;8.55;;;3.25;;
10645;SDS011;5371;49.782;9.932;2022-07-29T07:00:36;8.57;;;3.03;;
10645;SDS011;5371;49.782;9.932;2022-07-29T07:03:04;6.15;;;3.38;;
10645;SDS011;5371;49.782;9.932;2022-07-29T07:05:31;5.07;;;2.83;;
10645;SDS011;5371;49.782;9.932;2022-07-29T07:07:58;8.02;;;3.17;;
10645;SDS011;5371;49.782;9.932;2022-07-29T07:10:25;6.63;;;3.42;;
10645;SDS011;5371;49.782;9.932;2022-07-29T07:12:52;6.03;;;3.10;;
10645;SDS011;5371;49.782;9.932;2022-07-29T07:15:19;6.88;;;2.97;;
10645;SDS011;5371;49.782;9.932;2022-07-29T07:17:47;7.22;;;3.45;;
10645;SDS011;5371;49.782;9.932;2022-07-29T07:20:18;6.40;;;3.65;;
10645;SDS011;5371;49.782;9.932;2022-07-29T07:22:46;6.28;;;3.30;;
10645;SDS011;5371;49.782;9.932;2022-07-29T07:25:13;6.82;;;3.10;;
10645;SDS011;5371;49.782;9.932;2022-07-29T07:27:40;10.85;;;3.30;;
10645;SDS011;5371;49.782;9.932;2022-07-29T07:30:07;7.13;;;2.92;;
10645;SDS011;5371;49.782;9.932;2022-07-29T07:32:35;4.43;;;2.90;;
10645;SDS011;5371;49.782;9.932;2022-07-29T07:35:02;8.77;;;3.10;;
10645;SDS011;5371;49.782;9.932;2022-07-29T07:37:31;9.65;;;3.25;;
10645;SDS011;5371;49.782;9.932;2022-07-29T07:39:58;7.90;;;3.10;;
10645;SDS011;5371;49.782;9.932;2022-07-29T07:42:26;9.38;;;3.08;;
10645;SDS011;5371;49.782;9.932;2022-07-29T07:44:53;6.65;;;3.20;;
10645;SDS011;5371;49.782;9.932;2022-07-29T07:47:20;6.13;;;3.20;;
10645;SDS011;5371;49.782;9.932;2022-07-29T07:49:49;5.43;;;2.90;;
10645;SDS011;5371;49.782;9.932;2022-07-29T07:52:17;5.55;;;3.00;;
10645;SDS011;5371;49.782;9.932;2022-07-29T07:54:47;5.75;;;3.13;;
10645;SDS011;5371;49.782;9.932;2022-07-29T07:57:14;6.25;;;3.13;;
10645;SDS011;5371;49.782;9.932;2022-07-29T07:59:42;7.50;;;3.40;;
10645;SDS011;5371;49.782;9.932;2022-07-29T08:02:09;8.13;;;3.40;;
10645;SDS011;5371;49.782;9.932;2022-07-29T08:04:36;5.63;;;3.38;;
10645;SDS011;5371;49.782;9.932;2022-07-29T08:07:05;6.15;;;3.50;;
10645;SDS011;5371;49.782;9.932;2022-07-29T08:09:34;5.97;;;3.30;;
10645;SDS011;5371;49.782;9.932;2022-07-29T08:12:03;5.78;;;3.40;;
10645;SDS011;5371;49.782;9.932;2022-07-29T08:14:31;7.25;;;3.42;;
10645;SDS011;5371;49.782;9.932;2022-07-29T08:16:58;5.40;;;3.40;;
10645;SDS011;5371;49.782;9.932;2022-07-29T08:19:26;4.70;;;3.13;;
10645;SDS011;5371;49.782;9.932;2022-07-29T08:21:53;8.05;;;3.38;;
10645;SDS011;5371;49.782;9.932;2022-07-29T08:24:20;5.88;;;3.20;;
10645;SDS011;5371;49.782;9.932;2022-07-29T08:27:05;4.50;;;3.10;;
10645;SDS011;5371;49.782;9.932;2022-07-29T08:29:32;5.82;;;3.45;;
10645;SDS011;5371;49.782;9.932;2022-07-29T08:31:59;7.47;;;3.63;;
10645;SDS011;5371;49.782;9.932;2022-07-29T08:34:27;6.10;;;3.65;;
10645;SDS011;5371;49.782;9.932;2022-07-29T08:36:54;6.65;;;3.67;;
10645;SDS011;5371;49.782;9.932;2022-07-29T08:39:21;12.90;;;3.92;;
10645;SDS011;5371;49.782;9.932;2022-07-29T08:41:50;7.07;;;3.33;;
10645;SDS011;5371;49.782;9.932;2022-07-29T08:44:18;5.97;;;3.45;;
10645;SDS011;5371;49.782;9.932;2022-07-29T08:46:47;8.73;;;3.38;;
10645;SDS011;5371;49.782;9.932;2022-07-29T08:49:14;5.97;;;3.60;;
10645;SDS011;5371;49.782;9.932;2022-07-29T08:51:41;7.38;;;3.50;;
10645;SDS011;5371;49.782;9.932;2022-07-29T08:54:10;6.00;;;3.30;;
10645;SDS011;5371;49.782;9.932;2022-07-29T08:56:37;7.13;;;3.30;;
10645;SDS011;5371;49.782;9.932;2022-07-29T08:59:06;9.07;;;3.95;;
10645;SDS011;5371;49.782;9.932;2022-07-29T09:01:36;5.93;;;3.60;;
10645;SDS011;5371;49.782;9.932;2022-07-29T09:04:05;8.98;;;3.40;;
10645;SDS011;5371;49.782;9.932;2022-07-29T09:06:39;4.95;;;3.20;;
10645;SDS011;5371;49.782;9.932;2022-07-29T09:09:10;11.25;;;3.80;;
10645;SDS011;5371;49.782;9.932;2022-07-29T09:11:37;6.40;;;3.47;;
10645;SDS011;5371;49.782;9.932;2022-07-29T09:14:04;6.85;;;3.10;;
10645;SDS011;5371;49.782;9.932;2022-07-29T09:16:46;8.35;;;3.30;;
10645;SDS011;5371;49.782;9.932;2022-07-29T09:19:23;5.95;;;3.30;;
10645;SDS011;5371;49.782;9.932;2022-07-29T09:21:52;9.60;;;3.40;;
10645;SDS011;5371;49.782;9.932;2022-07-29T09:27:10;4.07;;;3.28;;
10645;SDS011;5371;49.782;9.932;2022-07-29T09:29:58;6.22;;;3.45;;
10645;SDS011;5371;49.782;9.932;2022-07-29T09:32:27;5.28;;;3.28;;
10645;SDS011;5371;49.782;9.932;2022-07-29T09:37:40;4.70;;;3.13;;
10645;SDS011;5371;49.782;9.932;2022-07-29T09:40:11;5.93;;;3.55;;
10645;SDS011;5371;49.782;9.932;2022-07-29T09:42:39;7.93;;;3.30;;
10645;SDS011;5371;49.782;9.932;2022-07-29T09:45:06;8.23;;;3.25;;
10645;SDS011;5371;49.782;9.932;2022-07-29T09:47:42;5.57;;;3.28;;
10645;SDS011;5371;49.782;9.932;2022-07-29T09:50:12;8.68;;;3.03;;
10645;SDS011;5371;49.782;9.932;2022-07-29T09:52:47;7.40;;;3.55;;
10645;SDS011;5371;49.782;9.932;2022-07-29T09:55:15;5.97;;;3.42;;
10645;SDS011;5371;49.782;9.932;2022-07-29T09:57:44;6.05;;;3.25;;
10645;SDS011;5371;49.782;9.932;2022-07-29T10:00:12;6.13;;;3.20;;
10645;SDS011;5371;49.782;9.932;2022-07-29T10:02:42;8.50;;;3.45;;
10645;SDS011;5371;49.782;9.932;2022-07-29T10:05:17;9.25;;;5.05;;
10645;SDS011;5371;49.782;9.932;2022-07-29T10:07:46;6.65;;;3.70;;
10645;SDS011;5371;49.782;9.932;2022-07-29T10:10:18;8.45;;;3.88;;
10645;SDS011;5371;49.782;9.932;2022-07-29T10:12:50;6.20;;;3.30;;
10645;SDS011;5371;49.782;9.932;2022-07-29T10:15:20;11.40;;;4.65;;
10645;SDS011;5371;49.782;9.932;2022-07-29T10:17:51;7.97;;;4.30;;
10645;SDS011;5371;49.782;9.932;2022-07-29T10:20:19;13.57;;;5.50;;
10645;SDS011;5371;49.782;9.932;2022-07-29T10:22:47;10.63;;;4.80;;
10645;SDS011;5371;49.782;9.932;2022-07-29T10:25:15;11.90;;;5.57;;
10645;SDS011;5371;49.782;9.932;2022-07-29T10:27:43;7.00;;;4.20;;
10645;SDS011;5371;49.782;9.932;2022-07-29T10:30:11;7.80;;;3.97;;
10645;SDS011;5371;49.782;9.932;2022-07-29T10:35:44;7.13;;;3.97;;
10645;SDS011;5371;49.782;9.932;2022-07-29T10:38:30;7.93;;;3.63;;
10645;SDS011;5371;49.782;9.932;2022-07-29T10:41:13;6.78;;;3.92;;
10645;SDS011;5371;49.782;9.932;2022-07-29T10:43:54;5.47;;;3.90;;
10645;SDS011;5371;49.782;9.932;2022-07-29T10:46:24;10.05;;;3.90;;
10645;SDS011;5371;49.782;9.932;2022-07-29T10:49:06;7.70;;;4.03;;
10645;SDS011;5371;49.782;9.932;2022-07-29T10:57:19;5.85;;;3.47;;
10645;SDS011;5371;49.782;9.932;2022-07-29T10:59:47;6.15;;;3.58;;
10645;SDS011;5371;49.782;9.932;2022-07-29T11:05:09;10.55;;;3.83;;
10645;SDS011;5371;49.782;9.932;2022-07-29T11:07:37;8.80;;;3.80;;
10645;SDS011;5371;49.782;9.932;2022-07-29T11:10:24;8.18;;;4.00;;
10645;SDS011;5371;49.782;9.932;2022-07-29T11:12:51;4.68;;;3.70;;
10645;SDS011;5371;49.782;9.932;2022-07-29T11:15:19;11.32;;;3.75;;
10645;SDS011;5371;49.782;9.932;2022-07-29T11:18:06;6.50;;;3.60;;
10645;SDS011;5371;49.782;9.932;2022-07-29T11:20:37;4.85;;;3.30;;
10645;SDS011;5371;49.782;9.932;2022-07-29T11:23:19;7.47;;;3.53;;
10645;SDS011;5371;49.782;9.932;2022-07-29T11:28:53;6.28;;;3.50;;
10645;SDS011;5371;49.782;9.932;2022-07-29T11:31:38;5.43;;;3.80;;
10645;SDS011;5371;49.782;9.932;2022-07-29T11:34:20;4.50;;;3.58;;
10645;SDS011;5371;49.782;9.932;2022-07-29T11:39:44;5.32;;;3.70;;
10645;SDS011;5371;49.782;9.932;2022-07-29T11:42:36;7.28;;;3.88;;
10645;SDS011;5371;49.782;9.932;2022-07-29T11:45:06;6.57;;;3.47;;
10645;SDS011;5371;49.782;9.932;2022-07-29T11:47:39;8.40;;;3.60;;
10645;SDS011;5371;49.782;9.932;2022-07-29T11:50:08;7.32;;;4.05;;
10645;SDS011;5371;49.782;9.932;2022-07-29T11:52:39;6.50;;;3.60;;
10645;SDS011;5371;49.782;9.932;2022-07-29T11:55:11;5.75;;;3.50;;
10645;SDS011;5371;49.782;9.932;2022-07-29T11:57:45;9.30;;;3.70;;
10645;SDS011;5371;49.782;9.932;2022-07-29T12:00:20;5.25;;;3.80;;
10645;SDS011;5371;49.782;9.932;2022-07-29T12:02:49;9.18;;;3.72;;
10645;SDS011;5371;49.782;9.932;2022-07-29T12:05:17;6.88;;;3.50;;
10645;SDS011;5371;49.782;9.932;2022-07-29T12:07:46;4.57;;;3.30;;
10645;SDS011;5371;49.782;9.932;2022-07-29T12:10:14;3.90;;;3.38;;
10645;SDS011;5371;49.782;9.932;2022-07-29T12:12:41;5.63;;;3.45;;
10645;SDS011;5371;49.782;9.932;2022-07-29T12:15:15;6.88;;;3.40;;
10645;SDS011;5371;49.782;9.932;2022-07-29T12:17:46;4.32;;;3.28;;
10645;SDS011;5371;49.782;9.932;2022-07-29T12:20:14;7.22;;;3.20;;
10645;SDS011;5371;49.782;9.932;2022-07-29T12:22:51;5.65;;;3.42;;
10645;SDS011;5371;49.782;9.932;2022-07-29T12:25:20;8.13;;;3.63;;
10645;SDS011;5371;49.782;9.932;2022-07-29T12:27:57;5.05;;;3.35;;
10645;SDS011;5371;49.782;9.932;2022-07-29T12:30:34;8.38;;;3.60;;
10645;SDS011;5371;49.782;9.932;2022-07-29T12:33:13;5.05;;;3.60;;
10645;SDS011;5371;49.782;9.932;2022-07-29T12:35:42;4.63;;;3.60;;
10645;SDS011;5371;49.782;9.932;2022-07-29T12:38:13;7.57;;;3.47;;
10645;SDS011;5371;49.782;9.932;2022-07-29T12:40:41;6.85;;;3.38;;
10645;SDS011;5371;49.782;9.932;2022-07-29T12:43:10;5.53;;;3.53;;
10645;SDS011;5371;49.782;9.932;2022-07-29T12:45:39;5.18;;;3.40;;
10645;SDS011;5371;49.782;9.932;2022-07-29T12:48:07;6.65;;;3.13;;
10645;SDS011;5371;49.782;9.932;2022-07-29T12:50:35;8.07;;;3.55;;
10645;SDS011;5371;49.782;9.932;2022-07-29T12:53:09;5.85;;;3.42;;
10645;SDS011;5371;49.782;9.932;2022-07-29T12:55:39;5.85;;;3.40;;
10645;SDS011;5371;49.782;9.932;2022-07-29T12:58:07;5.63;;;3.40;;
10645;SDS011;5371;49.782;9.932;2022-07-29T13:00:34;4.63;;;3.88;;
10645;SDS011;5371;49.782;9.932;2022-07-29T13:03:01;6.97;;;3.42;;
10645;SDS011;5371;49.782;9.932;2022-07-29T13:05:41;8.98;;;3.88;;
10645;SDS011;5371;49.782;9.932;2022-07-29T13:08:10;5.10;;;3.42;;
10645;SDS011;5371;49.782;9.932;2022-07-29T13:10:39;6.15;;;3.78;;
10645;SDS011;5371;49.782;9.932;2022-07-29T13:13:07;7.03;;;3.50;;
10645;SDS011;5371;49.782;9.932;2022-07-29T13:15:35;6.63;;;3.63;;
10645;SDS011;5371;49.782;9.932;2022-07-29T13:18:03;4.93;;;3.38;;
10645;SDS011;5371;49.782;9.932;2022-07-29T13:20:31;4.38;;;3.70;;
10645;SDS011;5371;49.782;9.932;2022-07-29T13:22:58;7.60;;;3.75;;
10645;SDS011;5371;49.782;9.932;2022-07-29T13:25:27;4.22;;;3.40;;
10645;SDS011;5371;49.782;9.932;2022-07-29T13:27:56;8.77;;;3.72;;
10645;SDS011;5371;49.782;9.932;2022-07-29T13:30:24;9.45;;;3.45;;
10645;SDS011;5371;49.782;9.932;2022-07-29T13:32:52;7.30;;;3.65;;
10645;SDS011;5371;49.782;9.932;2022-07-29T13:35:20;7.25;;;3.42;;
10645;SDS011;5371;49.782;9.932;2022-07-29T13:37:47;8.20;;;3.90;;
10645;SDS011;5371;49.782;9.932;2022-07-29T13:40:14;11.38;;;3.90;;
10645;SDS011;5371;49.782;9.932;2022-07-29T13:42:41;6.30;;;3.78;;
10645;SDS011;5371;49.782;9.932;2022-07-29T13:45:10;5.95;;;3.67;;
10645;SDS011;5371;49.782;9.932;2022-07-29T13:47:37;6.32;;;3.80;;
10645;SDS011;5371;49.782;9.932;2022-07-29T13:50:05;6.78;;;3.72;;
10645;SDS011;5371;49.782;9.932;2022-07-29T13:52:35;6.15;;;3.50;;
10645;SDS011;5371;49.782;9.932;2022-07-29T13:55:03;6.80;;;3.60;;
10645;SDS011;5371;49.782;9.932;2022-07-29T13:57:31;6.05;;;3.72;;
10645;SDS011;5371;49.782;9.932;2022-07-29T13:59:58;3.70;;;3.25;;
10645;SDS011;5371;49.782;9.932;2022-07-29T14:02:26;7.22;;;3.65;;
10645;SDS011;5371;49.782;9.932;2022-07-29T14:04:53;7.32;;;3.80;;
10645;SDS011;5371;49.782;9.932;2022-07-29T14:07:21;7.97;;;4.47;;
10645;SDS011;5371;49.782;9.932;2022-07-29T14:09:48;11.48;;;4.60;;
10645;SDS011;5371;49.782;9.932;2022-07-29T14:12:16;6.32;;;4.30;;
10645;SDS011;5371;49.782;9.932;2022-07-29T14:14:44;5.50;;;4.40;;
10645;SDS011;5371;49.782;9.932;2022-07-29T14:17:11;6.97;;;4.47;;
10645;SDS011;5371;49.782;9.932;2022-07-29T14:19:39;7.78;;;4.40;;
10645;SDS011;5371;49.782;9.932;2022-07-29T14:22:07;6.70;;;4.40;;
10645;SDS011;5371;49.782;9.932;2022-07-29T14:24:35;5.63;;;4.03;;
10645;SDS011;5371;49.782;9.932;2022-07-29T14:27:03;7.45;;;4.88;;
10645;SDS011;5371;49.782;9.932;2022-07-29T14:29:30;5.38;;;4.60;;
10645;SDS011;5371;49.782;9.932;2022-07-29T14:31:57;5.70;;;4.53;;
10645;SDS011;5371;49.782;9.932;2022-07-29T14:34:24;6.05;;;4.60;;
10645;SDS011;5371;49.782;9.932;2022-07-29T14:36:53;8.60;;;5.00;;
10645;SDS011;5371;49.782;9.932;2022-07-29T14:39:21;7.30;;;4.80;;
10645;SDS011;5371;49.782;9.932;2022-07-29T14:41:49;6.70;;;5.07;;
10645;SDS011;5371;49.782;9.932;2022-07-29T14:44:16;5.78;;;4.80;;
10645;SDS011;5371;49.782;9.932;2022-07-29T14:46:43;6.60;;;4.88;;
10645;SDS011;5371;49.782;9.932;2022-07-29T14:49:10;7.25;;;4.60;;
10645;SDS011;5371;49.782;9.932;2022-07-29T14:51:37;9.63;;;5.43;;
10645;SDS011;5371;49.782;9.932;2022-07-29T14:54:06;6.82;;;4.82;;
10645;SDS011;5371;49.782;9.932;2022-07-29T14:56:33;8.35;;;5.50;;
10645;SDS011;5371;49.782;9.932;2022-07-29T14:59:00;7.32;;;5.70;;
10645;SDS011;5371;49.782;9.932;2022-07-29T15:01:27;6.90;;;5.38;;
10645;SDS011;5371;49.782;9.932;2022-07-29T15:03:54;6.82;;;5.10;;
10645;SDS011;5371;49.782;9.932;2022-07-29T15:06:21;7.70;;;5.05;;
10645;SDS011;5371;49.782;9.932;2022-07-29T15:08:48;6.10;;;5.38;;
10645;SDS011;5371;49.782;9.932;2022-07-29T15:11:16;7.28;;;5.22;;
10645;SDS011;5371;49.782;9.932;2022-07-29T15:13:43;6.35;;;4.07;;
10645;SDS011;5371;49.782;9.932;2022-07-29T15:16:10;4.90;;;3.50;;
10645;SDS011;5371;49.782;9.932;2022-07-29T15:18:37;3.83;;;2.97;;
10645;SDS011;5371;49.782;9.932;2022-07-29T15:21:04;5.57;;;3.40;;
10645;SDS011;5371;49.782;9.932;2022-07-29T15:23:32;4.50;;;3.35;;
10645;SDS011;5371;49.782;9.932;2022-07-29T15:26:00;6.93;;;3.50;;
10645;SDS011;5371;49.782;9.932;2022-07-29T15:28:29;5.50;;;3.60;;
10645;SDS011;5371;49.782;9.932;2022-07-29T15:30:56;8.55;;;3.92;;
10645;SDS011;5371;49.782;9.932;2022-07-29T15:33:23;7.07;;;4.15;;
10645;SDS011;5371;49.782;9.932;2022-07-29T15:35:50;7.63;;;4.60;;